createdAt,value
2018-09-02T00:00:40.215Z,3.20
2018-09-02T00:03:07.724Z,3.20
2018-09-02T00:05:35.403Z,3.70
2018-09-02T00:08:02.912Z,3.80
2018-09-02T00:10:31.097Z,3.22
2018-09-02T00:12:58.740Z,3.37
2018-09-02T00:15:26.220Z,3.70
2018-09-02T00:17:53.766Z,3.60
2018-09-02T00:20:21.371Z,3.47
2018-09-02T00:22:48.849Z,3.50
2018-09-02T00:25:16.373Z,3.20
2018-09-02T00:27:43.821Z,3.33
2018-09-02T00:30:11.390Z,2.92
2018-09-02T00:32:38.867Z,2.83
2018-09-02T00:35:06.544Z,2.80
2018-09-02T00:37:33.950Z,2.58
2018-09-02T00:40:01.416Z,3.00
2018-09-02T00:42:28.979Z,2.70
2018-09-02T00:44:56.542Z,2.90
2018-09-02T00:47:24.094Z,2.93
2018-09-02T00:49:51.611Z,3.10
2018-09-02T00:52:19.215Z,3.00
2018-09-02T00:54:46.866Z,3.10
2018-09-02T00:57:14.405Z,3.40
2018-09-02T00:59:41.944Z,3.42
2018-09-02T01:02:09.488Z,3.10
2018-09-02T01:04:36.978Z,3.40
2018-09-02T01:07:04.688Z,3.62
2018-09-02T01:09:32.115Z,3.55
2018-09-02T01:11:59.832Z,3.40
2018-09-02T01:14:27.297Z,3.70
2018-09-02T01:16:54.829Z,3.62
2018-09-02T01:19:22.385Z,3.80
2018-09-02T01:21:49.940Z,3.80
2018-09-02T01:24:17.570Z,4.10
2018-09-02T01:26:45.127Z,3.72
2018-09-02T01:29:13.184Z,3.60
2018-09-02T01:31:40.689Z,3.42
2018-09-02T01:34:08.243Z,3.40
2018-09-02T01:36:35.806Z,3.45
2018-09-02T01:39:04.276Z,3.10
2018-09-02T01:41:31.947Z,3.35
2018-09-02T01:43:59.461Z,2.85
2018-09-02T01:46:27.313Z,3.03
2018-09-02T01:48:54.820Z,2.92
2018-09-02T01:51:22.320Z,2.77
2018-09-02T01:53:50.127Z,2.98
2018-09-02T01:56:17.942Z,2.90
2018-09-02T01:58:45.386Z,3.00
2018-09-02T02:01:12.958Z,3.22
2018-09-02T02:03:40.506Z,3.00
2018-09-02T02:06:08.217Z,3.20
2018-09-02T02:08:35.735Z,3.00
2018-09-02T02:11:03.281Z,2.93
2018-09-02T02:13:31.135Z,3.02
2018-09-02T02:15:58.761Z,2.98
2018-09-02T02:18:26.319Z,3.15
2018-09-02T02:20:53.804Z,2.95
2018-09-02T02:23:21.351Z,3.10
2018-09-02T02:25:48.935Z,3.00
2018-09-02T02:28:16.442Z,3.10
2018-09-02T02:30:43.996Z,3.02
2018-09-02T02:33:11.613Z,2.85
2018-09-02T02:35:39.183Z,3.00
2018-09-02T02:38:07.435Z,3.20
2018-09-02T02:40:35.189Z,3.27
2018-09-02T02:43:02.770Z,2.93
2018-09-02T02:45:30.303Z,3.20
2018-09-02T02:47:57.780Z,3.00
2018-09-02T02:50:25.533Z,2.65
2018-09-02T02:52:58.711Z,3.00
2018-09-02T02:55:26.279Z,2.87
2018-09-02T02:57:53.774Z,3.15
2018-09-02T03:00:21.339Z,3.05
2018-09-02T03:02:48.914Z,2.80
2018-09-02T03:05:16.380Z,2.87
2018-09-02T03:07:43.912Z,3.25
2018-09-02T03:10:11.530Z,3.10
2018-09-02T03:12:38.948Z,3.40
2018-09-02T03:15:06.529Z,2.92
2018-09-02T03:17:34.080Z,3.20
2018-09-02T03:20:01.631Z,3.00
2018-09-02T03:22:29.292Z,3.17
2018-09-02T03:24:56.889Z,3.08
2018-09-02T03:27:24.641Z,3.12
2018-09-02T03:29:53.515Z,3.17
2018-09-02T03:32:20.946Z,3.30
2018-09-02T03:34:48.539Z,3.00
2018-09-02T03:37:16.227Z,3.08
2018-09-02T03:39:43.884Z,3.10
2018-09-02T03:42:11.404Z,3.17
2018-09-02T03:44:39.121Z,2.80
2018-09-02T03:47:08.345Z,2.90
2018-09-02T03:49:35.957Z,3.15
2018-09-02T03:52:03.444Z,3.20
2018-09-02T03:54:30.915Z,3.10
2018-09-02T03:56:58.436Z,3.25
2018-09-02T03:59:27.760Z,3.30
2018-09-02T04:04:39.119Z,3.30
2018-09-02T04:07:06.705Z,3.25
2018-09-02T04:09:34.140Z,3.00
2018-09-02T04:12:01.646Z,2.80
2018-09-02T04:14:29.159Z,3.17
2018-09-02T04:16:56.606Z,3.50
2018-09-02T04:19:24.039Z,3.20
2018-09-02T04:21:51.618Z,3.20
2018-09-02T04:24:19.103Z,2.98
2018-09-02T04:26:46.594Z,3.05
2018-09-02T04:29:14.167Z,3.20
2018-09-02T04:31:41.724Z,2.97
2018-09-02T04:34:09.127Z,3.37
2018-09-02T04:36:36.722Z,3.25
2018-09-02T04:39:06.902Z,3.40
2018-09-02T04:41:34.461Z,3.30
2018-09-02T04:44:01.927Z,3.12
2018-09-02T04:46:29.817Z,2.92
2018-09-02T04:48:57.272Z,3.40
2018-09-02T04:51:24.816Z,4.37
2018-09-02T04:53:52.399Z,3.50
2018-09-02T04:56:19.834Z,3.53
2018-09-02T04:58:47.281Z,3.03
2018-09-02T05:01:14.994Z,3.30
2018-09-02T05:03:42.446Z,3.27
2018-09-02T05:06:10.739Z,3.05
2018-09-02T05:08:38.392Z,3.60
2018-09-02T05:11:05.965Z,3.10
2018-09-02T05:13:33.583Z,3.40
2018-09-02T05:16:01.140Z,3.87
2018-09-02T05:18:32.046Z,3.80
2018-09-02T05:20:59.573Z,3.58
2018-09-02T05:23:27.073Z,3.70
2018-09-02T05:25:55.244Z,3.50
2018-09-02T05:28:22.675Z,3.83
2018-09-02T05:30:50.349Z,3.72
2018-09-02T05:33:17.874Z,3.72
2018-09-02T05:35:45.391Z,3.45
2018-09-02T05:38:12.884Z,3.62
2018-09-02T05:40:40.802Z,3.30
2018-09-02T05:43:08.367Z,3.55
2018-09-02T05:45:35.948Z,3.60
2018-09-02T05:48:03.913Z,4.12
2018-09-02T05:50:31.695Z,3.50
2018-09-02T05:52:59.294Z,3.52
2018-09-02T05:55:26.748Z,3.87
2018-09-02T05:57:54.232Z,3.67
2018-09-02T06:00:21.779Z,3.77
2018-09-02T06:02:49.350Z,3.77
2018-09-02T06:05:21.402Z,3.90
2018-09-02T06:07:49.107Z,3.70
2018-09-02T06:10:16.619Z,3.72
2018-09-02T06:12:44.186Z,3.75
2018-09-02T06:15:11.652Z,4.28
2018-09-02T06:17:39.064Z,3.60
2018-09-02T06:20:06.608Z,3.67
2018-09-02T06:22:33.978Z,3.70
2018-09-02T06:25:01.547Z,3.40
2018-09-02T06:27:29.139Z,3.85
2018-09-02T06:29:56.818Z,4.08
2018-09-02T06:32:24.303Z,3.90
2018-09-02T06:34:51.792Z,3.97
2018-09-02T06:37:19.249Z,3.80
2018-09-02T06:39:46.783Z,3.90
2018-09-02T06:42:14.334Z,4.05
2018-09-02T06:44:41.882Z,4.00
2018-09-02T06:47:09.549Z,3.92
2018-09-02T06:49:37.100Z,4.33
2018-09-02T06:52:04.706Z,4.08
2018-09-02T06:54:32.225Z,3.80
2018-09-02T06:56:59.719Z,3.92
2018-09-02T06:59:27.755Z,3.70
2018-09-02T07:01:55.208Z,3.92
2018-09-02T07:04:22.678Z,3.85
2018-09-02T07:06:50.331Z,4.10
2018-09-02T07:09:17.827Z,4.22
2018-09-02T07:11:45.372Z,4.00
2018-09-02T07:14:13.051Z,4.08
2018-09-02T07:16:40.595Z,4.40
2018-09-02T07:19:08.157Z,4.37
2018-09-02T07:21:35.726Z,4.20
2018-09-02T07:24:03.197Z,4.15
2018-09-02T07:26:30.596Z,4.08
2018-09-02T07:28:58.110Z,4.10
2018-09-02T07:31:25.502Z,4.17
2018-09-02T07:33:52.883Z,4.62
2018-09-02T07:36:20.487Z,4.55
2018-09-02T07:38:48.073Z,4.35
2018-09-02T07:41:15.515Z,4.20
2018-09-02T07:43:43.060Z,4.00
2018-09-02T07:46:10.484Z,4.40
2018-09-02T07:48:37.980Z,3.95
2018-09-02T07:51:05.535Z,3.83
2018-09-02T07:53:33.037Z,4.33
2018-09-02T07:56:00.483Z,4.10
2018-09-02T07:58:28.017Z,4.33
2018-09-02T08:00:55.612Z,4.40
2018-09-02T08:03:23.171Z,4.55
2018-09-02T08:05:50.715Z,4.25
2018-09-02T08:08:18.346Z,4.28
2018-09-02T08:10:45.831Z,4.35
2018-09-02T08:13:13.740Z,4.50
2018-09-02T08:15:41.198Z,4.30
2018-09-02T08:18:08.714Z,4.47
2018-09-02T08:20:36.195Z,4.25
2018-09-02T08:23:03.843Z,4.17
2018-09-02T08:25:32.372Z,4.30
2018-09-02T08:27:59.922Z,4.53
2018-09-02T08:30:27.530Z,4.55
2018-09-02T08:33:12.970Z,4.50
2018-09-02T08:35:40.481Z,4.30
2018-09-02T08:41:10.563Z,4.62
2018-09-02T08:43:45.672Z,4.55
2018-09-02T08:46:14.261Z,4.60
2018-09-02T08:48:42.621Z,4.75
2018-09-02T08:51:10.751Z,4.47
2018-09-02T08:53:38.575Z,4.72
2018-09-02T08:56:12.884Z,4.72
2018-09-02T08:58:40.331Z,4.65
2018-09-02T09:01:07.841Z,4.50
2018-09-02T09:03:35.302Z,4.50
2018-09-02T09:06:02.797Z,4.58
2018-09-02T09:08:30.550Z,5.03
2018-09-02T09:10:59.172Z,5.00
2018-09-02T09:13:26.674Z,4.83
2018-09-02T09:15:54.142Z,4.47
2018-09-02T09:18:21.653Z,4.75
2018-09-02T09:20:49.035Z,5.40
2018-09-02T09:23:16.617Z,4.70
2018-09-02T09:25:44.205Z,5.00
2018-09-02T09:28:26.876Z,4.90
2018-09-02T09:30:54.447Z,4.70
2018-09-02T09:33:21.994Z,5.10
2018-09-02T09:35:55.844Z,4.83
2018-09-02T09:38:23.589Z,5.00
2018-09-02T09:40:53.310Z,4.90
2018-09-02T09:43:21.901Z,4.80
2018-09-02T09:45:52.722Z,5.17
2018-09-02T09:48:20.317Z,4.60
2018-09-02T09:50:48.149Z,5.17
2018-09-02T09:56:19.130Z,5.33
2018-09-02T09:58:47.220Z,5.00
2018-09-02T10:01:14.910Z,5.28
2018-09-02T10:03:43.221Z,5.47
2018-09-02T10:06:10.749Z,5.47
2018-09-02T10:08:38.272Z,5.05
2018-09-02T10:11:05.966Z,5.40
2018-09-02T10:13:33.459Z,5.10
2018-09-02T10:16:00.982Z,5.47
2018-09-02T10:18:28.454Z,5.37
2018-09-02T10:20:56.184Z,5.37
2018-09-02T10:23:23.778Z,5.00
2018-09-02T10:25:51.288Z,5.67
2018-09-02T10:28:18.748Z,6.45
2018-09-02T10:30:46.389Z,5.72
2018-09-02T10:33:13.957Z,10.25
2018-09-02T10:35:41.420Z,18.20
2018-09-02T10:38:08.915Z,9.20
2018-09-02T10:40:36.473Z,7.40
2018-09-02T10:43:04.142Z,6.20
2018-09-02T10:45:31.737Z,6.37
2018-09-02T10:47:59.274Z,5.67
2018-09-02T10:53:04.775Z,5.80
2018-09-02T10:55:32.378Z,5.83
2018-09-02T10:58:00.039Z,5.70
2018-09-02T11:00:27.600Z,5.95
2018-09-02T11:02:55.163Z,5.65
2018-09-02T11:05:22.595Z,6.08
2018-09-02T11:07:50.102Z,5.80
2018-09-02T11:10:17.728Z,5.67
2018-09-02T11:12:45.511Z,6.00
2018-09-02T11:15:16.336Z,5.90
2018-09-02T11:17:44.036Z,5.60
2018-09-02T11:20:11.607Z,6.00
2018-09-02T11:22:39.098Z,5.65
2018-09-02T11:25:06.587Z,5.00
2018-09-02T11:27:34.166Z,5.60
2018-09-02T11:30:01.662Z,5.55
2018-09-02T11:32:29.746Z,5.15
2018-09-02T11:34:57.418Z,5.50
2018-09-02T11:37:25.008Z,5.53
2018-09-02T11:39:52.597Z,5.30
2018-09-02T11:42:20.156Z,5.47
2018-09-02T11:44:47.727Z,5.25
2018-09-02T11:47:15.270Z,5.40
2018-09-02T11:49:42.737Z,5.37
2018-09-02T11:52:10.372Z,5.95
2018-09-02T11:54:37.871Z,5.30
2018-09-02T11:57:05.377Z,5.10
2018-09-02T11:59:32.872Z,5.25
2018-09-02T12:02:00.382Z,5.50
2018-09-02T12:04:27.873Z,5.70
2018-09-02T12:06:55.297Z,5.72
2018-09-02T12:09:22.869Z,6.55
2018-09-02T12:11:50.460Z,5.80
2018-09-02T12:14:17.879Z,5.70
2018-09-02T12:16:45.369Z,5.85
2018-09-02T12:19:13.851Z,5.75
2018-09-02T12:21:41.376Z,5.90
2018-09-02T12:24:08.911Z,6.15
2018-09-02T12:27:01.118Z,5.83
2018-09-02T12:29:28.608Z,5.45
2018-09-02T12:32:00.003Z,5.10
2018-09-02T12:37:06.030Z,6.42
2018-09-02T12:39:40.340Z,10.13
2018-09-02T12:42:10.219Z,7.78
2018-09-02T12:44:37.837Z,9.33
2018-09-02T12:47:05.435Z,6.50
2018-09-02T12:52:39.848Z,5.60
2018-09-02T12:55:12.538Z,5.42
2018-09-02T12:57:40.854Z,6.25
2018-09-02T13:00:09.809Z,6.03
2018-09-02T13:02:38.389Z,5.90
2018-09-02T13:08:13.182Z,5.40
2018-09-02T13:10:40.684Z,6.10
2018-09-02T13:16:15.477Z,6.55
2018-09-02T13:18:44.706Z,6.47
2018-09-02T13:27:35.310Z,5.50
2018-09-02T13:30:25.236Z,5.47
2018-09-02T13:33:07.349Z,5.60
2018-09-02T13:35:35.031Z,5.62
2018-09-02T13:38:02.546Z,5.62
2018-09-02T13:42:14.564Z,5.67
2018-09-02T13:45:01.912Z,6.22
2018-09-02T13:47:29.428Z,6.17
2018-09-02T13:50:13.540Z,6.47
2018-09-02T14:30:46.116Z,6.60
2018-09-02T14:33:39.388Z,5.50
2018-09-02T14:36:06.893Z,5.62
2018-09-02T14:38:34.348Z,6.15
2018-09-02T14:41:02.523Z,6.62
2018-09-02T14:43:31.114Z,6.40
2018-09-02T14:45:58.648Z,5.75
2018-09-02T14:48:26.069Z,5.90
2018-09-02T14:50:53.724Z,5.62
2018-09-02T14:53:21.546Z,5.17
2018-09-02T14:55:49.029Z,5.12
2018-09-02T15:01:10.105Z,4.90
2018-09-02T15:07:00.620Z,5.50
2018-09-02T15:09:30.693Z,5.33
2018-09-02T15:15:01.300Z,5.63
2018-09-02T15:17:28.868Z,4.97
2018-09-02T15:19:56.975Z,6.05
2018-09-02T15:22:24.473Z,6.67
2018-09-02T15:25:08.327Z,6.80
2018-09-02T15:27:58.389Z,4.87
2018-09-02T15:33:32.070Z,6.40
2018-09-02T15:35:59.460Z,5.35
2018-09-02T15:56:24.251Z,4.65
2018-09-02T15:58:51.783Z,4.30
2018-09-02T16:01:19.258Z,4.30
2018-09-02T16:03:46.816Z,4.65
2018-09-02T16:06:14.400Z,4.72
2018-09-02T16:08:42.583Z,4.90
2018-09-02T16:11:33.578Z,5.30
2018-09-02T16:14:01.810Z,4.87
2018-09-02T16:16:29.290Z,4.72
2018-09-02T16:18:58.256Z,4.97
2018-09-02T16:21:25.731Z,4.60
2018-09-02T16:23:53.289Z,4.85
2018-09-02T16:26:20.828Z,5.10
2018-09-02T16:28:48.290Z,4.85
2018-09-02T16:31:16.166Z,5.10
2018-09-02T16:33:43.669Z,5.12
2018-09-02T16:36:31.185Z,5.03
2018-09-02T16:38:59.116Z,5.08
2018-09-02T16:41:26.693Z,4.60
2018-09-02T16:44:06.260Z,4.42
2018-09-02T16:46:33.996Z,4.40
2018-09-02T16:49:01.607Z,4.70
2018-09-02T16:51:34.237Z,4.45
2018-09-02T16:54:01.734Z,4.45
2018-09-02T16:56:29.271Z,4.62
2018-09-02T16:59:05.451Z,4.90
2018-09-02T17:01:33.219Z,4.40
2018-09-02T17:04:03.666Z,4.58
2018-09-02T17:06:36.175Z,4.80
2018-09-02T17:09:17.564Z,4.60
2018-09-02T17:11:45.486Z,4.97
2018-09-02T17:14:12.962Z,4.72
2018-09-02T17:16:40.421Z,5.20
2018-09-02T17:19:12.297Z,4.67
2018-09-02T17:21:40.016Z,4.70
2018-09-02T17:24:09.154Z,4.70
2018-09-02T17:26:36.807Z,4.95
2018-09-02T17:29:04.584Z,4.92
2018-09-02T17:31:32.142Z,5.50
2018-09-02T17:33:59.582Z,5.15
2018-09-02T17:36:27.036Z,6.90
2018-09-02T17:38:54.587Z,5.67
2018-09-02T17:41:22.134Z,5.12
2018-09-02T17:43:49.589Z,4.92
2018-09-02T17:46:17.055Z,5.10
2018-09-02T17:48:44.522Z,5.55
2018-09-02T17:51:11.953Z,4.90
2018-09-02T17:53:41.473Z,4.92
2018-09-02T17:56:09.066Z,5.10
2018-09-02T17:58:36.670Z,5.22
2018-09-02T18:01:05.005Z,5.20
2018-09-02T18:03:33.753Z,6.05
2018-09-02T18:06:01.112Z,5.20
2018-09-02T18:08:28.966Z,5.50
2018-09-02T18:10:56.398Z,5.50
2018-09-02T18:13:23.943Z,5.03
2018-09-02T18:15:51.378Z,5.12
2018-09-02T18:18:18.809Z,5.40
2018-09-02T18:20:46.412Z,5.03
2018-09-02T18:23:19.869Z,5.40
2018-09-02T18:26:07.378Z,5.15
2018-09-02T18:28:47.646Z,5.40
2018-09-02T18:31:21.222Z,5.90
2018-09-02T18:33:49.681Z,5.70
2018-09-02T18:36:22.704Z,5.40
2018-09-02T18:38:50.181Z,5.58
2018-09-02T18:41:19.819Z,5.53
2018-09-02T18:43:47.553Z,5.67
2018-09-02T18:46:15.616Z,5.60
2018-09-02T18:48:52.903Z,5.67
2018-09-02T18:51:33.014Z,5.37
2018-09-02T18:54:06.361Z,5.72
2018-09-02T18:56:33.859Z,5.50
2018-09-02T19:02:06.426Z,5.80
2018-09-02T19:04:37.796Z,5.50
2018-09-02T19:16:27.033Z,5.87
2018-09-02T19:18:59.969Z,5.80
2018-09-02T19:21:30.418Z,5.58
2018-09-02T19:27:00.241Z,6.00
2018-09-02T19:35:33.809Z,5.80
2018-09-02T19:41:10.819Z,6.50
2018-09-02T19:44:00.900Z,5.60
2018-09-02T19:46:28.530Z,5.47
2018-09-02T19:55:07.323Z,5.70
2018-09-02T19:58:46.282Z,5.97
2018-09-02T20:01:36.407Z,5.93
2018-09-02T20:04:05.656Z,6.03
2018-09-02T20:06:33.199Z,5.85
2018-09-02T20:09:00.724Z,6.40
2018-09-02T20:11:29.143Z,6.80
2018-09-02T20:13:56.693Z,7.10
2018-09-02T20:16:24.258Z,7.47
2018-09-02T20:18:52.207Z,8.23
2018-09-02T20:21:23.247Z,8.90
2018-09-02T20:23:50.839Z,9.00
2018-09-02T20:26:19.792Z,8.50
2018-09-02T20:28:47.459Z,8.28
2018-09-02T20:31:14.969Z,7.87
2018-09-02T20:33:42.621Z,8.30
2018-09-02T20:36:10.144Z,8.80
2018-09-02T20:41:31.169Z,7.87
2018-09-02T20:44:26.170Z,7.47
2018-09-02T20:46:56.703Z,7.72
2018-09-02T20:49:28.031Z,7.60
2018-09-02T20:51:57.050Z,7.40
2018-09-02T20:54:24.491Z,8.10
2018-09-02T20:56:52.098Z,7.40
2018-09-02T20:59:32.271Z,7.37
2018-09-02T21:02:07.708Z,7.12
2018-09-02T21:04:35.288Z,7.17
2018-09-02T21:07:02.746Z,7.25
2018-09-02T21:09:41.786Z,7.37
2018-09-02T21:12:09.435Z,7.25
2018-09-02T21:14:37.076Z,7.10
2018-09-02T21:17:04.547Z,7.45
2018-09-02T21:19:32.658Z,7.40
2018-09-02T21:22:23.990Z,7.23
2018-09-02T21:28:02.718Z,7.33
2018-09-02T21:30:30.413Z,6.97
2018-09-02T21:32:57.905Z,6.45
2018-09-02T21:35:26.183Z,6.50
2018-09-02T21:37:53.755Z,6.72
2018-09-02T21:40:21.446Z,6.70
2018-09-02T21:42:49.230Z,6.40
2018-09-02T21:45:22.399Z,6.30
2018-09-02T21:48:10.319Z,6.20
2018-09-02T21:50:38.147Z,6.70
2018-09-02T21:58:56.595Z,7.10
2018-09-02T22:01:24.568Z,7.60
2018-09-02T22:04:02.457Z,6.80
2018-09-02T22:06:30.267Z,7.30
2018-09-02T22:15:03.727Z,7.45
2018-09-02T22:20:35.457Z,7.47
2018-09-02T22:23:03.371Z,7.70
2018-09-02T22:34:39.938Z,7.67
2018-09-02T22:37:07.741Z,8.18
2018-09-02T22:39:52.224Z,8.30
2018-09-02T22:45:16.428Z,7.90
2018-09-02T22:47:44.319Z,8.03
2018-09-02T22:50:13.036Z,8.43
2018-09-02T22:55:44.308Z,8.05
2018-09-02T22:58:11.810Z,8.50
2018-09-02T23:09:40.652Z,8.68
2018-09-02T23:12:11.041Z,9.00
2018-09-02T23:14:38.607Z,8.70
2018-09-02T23:20:21.236Z,8.87
2018-09-02T23:22:48.904Z,8.90
2018-09-02T23:25:16.768Z,8.93
2018-09-02T23:30:53.272Z,9.23
2018-09-02T23:33:20.912Z,9.65
2018-09-02T23:36:04.994Z,9.90
2018-09-02T23:41:22.603Z,10.10
2018-09-02T23:46:52.790Z,10.05
2018-09-02T23:49:20.496Z,10.38
2018-09-02T23:51:48.280Z,10.82
2018-09-02T23:54:16.789Z,10.70
2018-09-02T23:56:44.400Z,11.00
2018-09-02T23:59:12.011Z,10.85
